Time;durP1;ratioP1;P1;durP2;ratioP2;P2;SDS_P1;SDS_P2;PMS_P1;PMS_P2;Temp;Humidity;BMP_temperature;BMP_pressure;BME280_temperature;BME280_humidity;BME280_pressure;Samples;Min_cycle;Max_cycle;Signal;HPM_P1;HPM_P2
2023/05/04 00:01:17;;;;;;;14.50;5.65;;;11.90;84.00;;;;;;4975320;28;20030;-83
2023/05/04 00:03:43;;;;;;;11.98;6.95;;;11.90;86.70;;;;;;4966279;28;20037;-84
2023/05/04 00:06:08;;;;;;;12.30;5.43;;;11.90;86.50;;;;;;4971481;28;20055;-84
2023/05/04 00:08:34;;;;;;;13.55;5.30;;;11.80;86.10;;;;;;4965689;28;20062;-85
2023/05/04 00:11:00;;;;;;;12.35;6.93;;;11.80;88.60;;;;;;4958267;28;20035;-82
2023/05/04 00:13:25;;;;;;;15.07;8.00;;;11.80;86.70;;;;;;4964319;28;20023;-83
2023/05/04 00:15:51;;;;;;;17.20;7.05;;;11.80;87.80;;;;;;4957588;28;20070;-85
2023/05/04 00:18:17;;;;;;;9.77;5.88;;;11.80;87.80;;;;;;4963348;28;20019;-82
2023/05/04 00:20:42;;;;;;;12.93;7.43;;;11.70;88.00;;;;;;4970069;28;20537;-85
2023/05/04 00:23:09;;;;;;;15.10;7.85;;;11.70;87.40;;;;;;4969971;28;20098;-83
2023/05/04 00:25:37;;;;;;;11.70;5.78;;;11.70;86.80;;;;;;4972658;28;20030;-82
2023/05/04 00:28:03;;;;;;;12.38;8.65;;;11.70;89.70;;;;;;4974710;28;20078;-84
2023/05/04 00:30:28;;;;;;;12.07;7.07;;;11.70;86.90;;;;;;4974766;28;20022;-82
2023/05/04 00:32:54;;;;;;;14.15;8.43;;;11.70;88.50;;;;;;4974656;28;20574;-83
2023/05/04 00:35:25;;;;;;;14.05;6.95;;;11.60;86.90;;;;;;4973095;28;20034;-83
2023/05/04 00:37:51;;;;;;;12.52;5.13;;;11.60;87.10;;;;;;4963090;28;20027;-84
2023/05/04 00:40:16;;;;;;;10.10;8.45;;;11.60;88.70;;;;;;4957182;28;20031;-83
2023/05/04 00:42:42;;;;;;;13.15;7.20;;;11.60;88.80;;;;;;4971243;28;20549;-84
2023/05/04 00:45:08;;;;;;;11.63;5.10;;;11.60;88.10;;;;;;4961913;28;20037;-83
2023/05/04 00:47:34;;;;;;;11.18;7.53;;;11.50;88.00;;;;;;4963734;28;20059;-84
2023/05/04 00:50:00;;;;;;;13.55;7.90;;;11.50;87.60;;;;;;4956499;28;20042;-84
2023/05/04 00:52:26;;;;;;;10.77;7.13;;;11.40;87.80;;;;;;4962241;28;20027;-86
2023/05/04 00:54:53;;;;;;;11.27;7.10;;;11.40;87.90;;;;;;4956164;28;20088;-85
2023/05/04 00:57:19;;;;;;;13.30;6.85;;;11.40;89.00;;;;;;4964470;28;20105;-82
2023/05/04 00:59:48;;;;;;;14.15;7.00;;;11.30;87.70;;;;;;4975832;28;20058;-85
2023/05/04 01:02:14;;;;;;;13.57;5.90;;;11.40;89.10;;;;;;4967379;28;20031;-85
2023/05/04 01:04:40;;;;;;;10.85;4.45;;;11.30;89.10;;;;;;4965528;28;20015;-85
2023/05/04 01:07:12;;;;;;;15.70;6.97;;;11.30;90.60;;;;;;4967304;28;20011;-84
2023/05/04 01:09:55;;;;;;;13.45;7.97;;;11.30;89.70;;;;;;4972180;28;20023;-83
2023/05/04 01:12:33;;;;;;;21.95;6.28;;;11.30;87.90;;;;;;4966463;28;20023;-84
2023/05/04 01:14:59;;;;;;;12.07;5.47;;;11.30;90.40;;;;;;4978947;28;20030;-84
2023/05/04 01:17:25;;;;;;;12.57;6.13;;;11.30;90.90;;;;;;4975318;28;20106;-85
2023/05/04 01:19:52;;;;;;;15.32;7.80;;;11.30;90.20;;;;;;4977030;28;20034;-85
2023/05/04 01:22:19;;;;;;;13.02;6.40;;;11.30;89.90;;;;;;4966773;28;20018;-85
2023/05/04 01:24:46;;;;;;;11.77;6.65;;;11.20;89.60;;;;;;4976300;28;20035;-83
2023/05/04 01:27:21;;;;;;;13.35;6.10;;;11.30;88.60;;;;;;4962490;28;20022;-83
2023/05/04 01:30:14;;;;;;;10.88;5.28;;;11.30;90.10;;;;;;4975824;28;20045;-82
2023/05/04 01:32:40;;;;;;;11.23;6.82;;;11.30;89.90;;;;;;4974670;28;20465;-81
2023/05/04 01:35:10;;;;;;;14.75;7.30;;;11.30;89.50;;;;;;4942038;29;20046;-81
2023/05/04 01:37:36;;;;;;;16.83;6.13;;;11.20;88.00;;;;;;4957656;28;20026;-83
2023/05/04 01:40:01;;;;;;;12.52;5.82;;;11.20;88.80;;;;;;4958356;28;20031;-82
2023/05/04 01:42:27;;;;;;;11.10;7.57;;;11.20;88.60;;;;;;4970318;28;20034;-81
2023/05/04 01:44:53;;;;;;;12.35;7.03;;;11.20;89.20;;;;;;4967151;28;20106;-83
2023/05/04 01:47:18;;;;;;;16.23;7.53;;;11.20;87.90;;;;;;4954283;28;20024;-81
2023/05/04 01:49:44;;;;;;;12.25;6.03;;;11.10;89.20;;;;;;4968901;28;20031;-82
2023/05/04 01:52:10;;;;;;;12.02;5.57;;;11.10;89.10;;;;;;4963876;28;20019;-82
2023/05/04 01:54:35;;;;;;;8.43;3.78;;;11.10;90.20;;;;;;4967702;28;20035;-82
2023/05/04 01:57:01;;;;;;;11.40;6.88;;;11.10;91.00;;;;;;4967819;28;20027;-82
2023/05/04 01:59:26;;;;;;;11.05;6.45;;;11.10;90.70;;;;;;4964423;28;20035;-81
2023/05/04 02:01:52;;;;;;;11.40;7.88;;;11.00;90.00;;;;;;4971389;28;20499;-82
2023/05/04 02:04:17;;;;;;;15.77;6.82;;;11.00;89.50;;;;;;4964710;28;20046;-80
2023/05/04 02:06:43;;;;;;;12.70;7.53;;;11.10;91.10;;;;;;4940910;29;20023;-80
2023/05/04 02:09:09;;;;;;;11.75;7.05;;;11.00;89.20;;;;;;4969404;28;20517;-82
2023/05/04 02:11:36;;;;;;;8.20;5.53;;;11.00;90.00;;;;;;4947009;29;20124;-83
2023/05/04 02:14:03;;;;;;;14.10;8.00;;;11.00;90.00;;;;;;4957163;28;20121;-83
2023/05/04 02:16:28;;;;;;;12.27;7.13;;;11.00;90.70;;;;;;4965242;28;20061;-82
2023/05/04 02:18:54;;;;;;;12.98;6.88;;;11.00;90.60;;;;;;4961569;28;20027;-83
2023/05/04 02:21:20;;;;;;;14.00;4.43;;;11.00;90.60;;;;;;4970840;28;20019;-81
2023/05/04 02:23:45;;;;;;;10.13;6.80;;;11.00;91.70;;;;;;4971430;28;20489;-81
2023/05/04 02:26:11;;;;;;;11.60;6.40;;;11.00;90.20;;;;;;4972420;28;20042;-81
2023/05/04 02:28:37;;;;;;;10.60;4.07;;;10.90;89.00;;;;;;4955860;28;20050;-82
2023/05/04 02:31:03;;;;;;;10.90;7.65;;;11.00;91.50;;;;;;4963237;28;20082;-81
2023/05/04 02:33:28;;;;;;;9.20;4.75;;;10.90;89.70;;;;;;4955578;28;20046;-82
2023/05/04 02:35:54;;;;;;;9.43;7.18;;;10.90;90.50;;;;;;4959538;28;20104;-81
2023/05/04 02:38:19;;;;;;;8.30;4.50;;;10.90;90.50;;;;;;4970818;28;20035;-84
2023/05/04 02:40:46;;;;;;;15.50;8.73;;;10.90;91.50;;;;;;4965757;28;20098;-81
2023/05/04 02:43:11;;;;;;;9.35;4.40;;;10.80;89.60;;;;;;4971371;28;20035;-82
2023/05/04 02:45:37;;;;;;;15.20;8.90;;;10.80;90.70;;;;;;4966673;28;20026;-84
2023/05/04 02:48:03;;;;;;;14.95;8.48;;;10.80;90.50;;;;;;4971410;28;20062;-82
2023/05/04 02:50:30;;;;;;;10.50;6.07;;;10.80;90.50;;;;;;4964329;28;20022;-83
2023/05/04 02:52:55;;;;;;;14.73;8.68;;;10.80;90.50;;;;;;4974470;28;20019;-82
2023/05/04 02:55:23;;;;;;;9.80;6.38;;;10.70;88.50;;;;;;4972919;28;20053;-83
2023/05/04 02:57:49;;;;;;;13.00;7.07;;;10.70;89.90;;;;;;4972947;28;20497;-82
2023/05/04 03:00:15;;;;;;;16.40;8.38;;;10.70;89.60;;;;;;4967944;28;20030;-81
2023/05/04 03:02:40;;;;;;;13.15;7.60;;;10.70;90.30;;;;;;4955166;28;20026;-85
2023/05/04 03:05:06;;;;;;;13.55;7.57;;;10.60;89.20;;;;;;4965487;28;20072;-84
2023/05/04 03:07:32;;;;;;;7.43;3.75;;;10.60;89.00;;;;;;4971137;28;20030;-85
2023/05/04 03:09:57;;;;;;;10.82;7.78;;;10.60;90.80;;;;;;4945908;28;20050;-84
2023/05/04 03:12:23;;;;;;;14.38;6.65;;;10.60;89.00;;;;;;4972540;28;20030;-83
2023/05/04 03:14:49;;;;;;;15.05;7.38;;;10.60;90.10;;;;;;4972691;28;20046;-83
2023/05/04 03:17:20;;;;;;;12.18;7.50;;;10.60;89.80;;;;;;4966487;28;20151;-84
2023/05/04 03:19:46;;;;;;;13.85;7.45;;;10.60;89.10;;;;;;4972524;28;20022;-85
2023/05/04 03:22:11;;;;;;;11.40;6.97;;;10.50;89.00;;;;;;4953313;28;20070;-83
2023/05/04 03:24:38;;;;;;;10.80;8.07;;;10.50;89.20;;;;;;4955597;28;20062;-83
2023/05/04 03:27:04;;;;;;;18.02;7.40;;;10.50;89.80;;;;;;4962094;28;20032;-82
2023/05/04 03:29:29;;;;;;;12.55;6.88;;;10.50;90.60;;;;;;4966767;28;20031;-83
2023/05/04 03:31:55;;;;;;;11.07;7.30;;;10.50;90.10;;;;;;4968352;28;20030;-82
2023/05/04 03:34:21;;;;;;;12.30;8.38;;;10.40;88.70;;;;;;4954914;28;20097;-82
2023/05/04 03:36:48;;;;;;;12.73;7.43;;;10.40;90.00;;;;;;4957270;28;20086;-83
2023/05/04 03:39:17;;;;;;;9.68;5.93;;;10.40;88.60;;;;;;4969148;28;20030;-81
2023/05/04 03:41:43;;;;;;;13.82;7.35;;;10.40;89.70;;;;;;4970444;28;20019;-82
2023/05/04 03:44:09;;;;;;;12.05;5.57;;;10.40;89.10;;;;;;4966896;28;20035;-82
2023/05/04 03:46:35;;;;;;;14.60;8.23;;;10.40;90.00;;;;;;4954874;28;20397;-82
2023/05/04 03:49:00;;;;;;;9.75;4.82;;;10.40;89.50;;;;;;4965587;28;20027;-82
2023/05/04 03:51:26;;;;;;;15.40;7.15;;;10.40;90.50;;;;;;4955966;28;20045;-83
2023/05/04 03:53:52;;;;;;;15.10;7.85;;;10.40;90.80;;;;;;4962971;28;20057;-83
2023/05/04 03:56:17;;;;;;;12.30;6.68;;;10.40;89.60;;;;;;4967836;28;20473;-82
2023/05/04 03:58:43;;;;;;;18.23;8.70;;;10.40;90.20;;;;;;4962488;28;20030;-83
2023/05/04 04:01:09;;;;;;;11.98;7.88;;;10.40;89.80;;;;;;4960928;28;20023;-82
2023/05/04 04:03:35;;;;;;;12.00;7.55;;;10.30;90.40;;;;;;4947031;28;20106;-82
2023/05/04 04:06:04;;;;;;;10.85;7.47;;;10.30;90.20;;;;;;4962367;28;20054;-83
2023/05/04 04:08:29;;;;;;;10.20;6.95;;;10.30;90.80;;;;;;4962641;28;20033;-82
2023/05/04 04:10:55;;;;;;;12.57;8.02;;;10.20;90.00;;;;;;4968731;28;20027;-82
2023/05/04 04:13:21;;;;;;;13.52;7.93;;;10.20;90.10;;;;;;4969432;28;20605;-82
2023/05/04 04:15:46;;;;;;;12.48;8.02;;;10.20;89.10;;;;;;4961530;28;20043;-82
2023/05/04 04:18:12;;;;;;;14.73;9.18;;;10.20;89.40;;;;;;4962997;28;20015;-83
2023/05/04 04:20:38;;;;;;;15.95;9.13;;;10.20;89.50;;;;;;4961728;28;20093;-82
2023/05/04 04:23:03;;;;;;;12.80;7.95;;;10.10;89.40;;;;;;4943575;28;20054;-82
2023/05/04 04:25:30;;;;;;;12.40;7.53;;;10.10;89.00;;;;;;4954320;28;20030;-83
2023/05/04 04:27:56;;;;;;;11.55;6.57;;;10.20;90.90;;;;;;4952729;28;20422;-80
2023/05/04 04:30:22;;;;;;;10.80;8.18;;;10.20;91.00;;;;;;4970769;28;20023;-81
2023/05/04 04:32:48;;;;;;;13.52;9.27;;;10.10;90.30;;;;;;4964223;28;20473;-83
2023/05/04 04:35:14;;;;;;;13.25;8.57;;;10.10;90.10;;;;;;4969658;28;20035;-82
2023/05/04 04:37:40;;;;;;;12.27;7.85;;;10.10;90.30;;;;;;4974441;28;20106;-82
2023/05/04 04:40:06;;;;;;;13.50;7.70;;;10.10;90.20;;;;;;4971175;28;20106;-81
2023/05/04 04:42:32;;;;;;;9.13;6.78;;;10.10;89.30;;;;;;4975032;28;20034;-81
2023/05/04 04:44:58;;;;;;;11.07;7.90;;;10.10;90.40;;;;;;4958142;28;20027;-80
2023/05/04 04:47:24;;;;;;;12.98;8.27;;;10.10;90.20;;;;;;4958593;28;20111;-81
2023/05/04 04:49:51;;;;;;;10.07;6.40;;;10.10;90.00;;;;;;4974886;28;20057;-81
2023/05/04 04:52:17;;;;;;;12.07;7.38;;;10.10;90.20;;;;;;4956796;28;20030;-81
2023/05/04 04:54:44;;;;;;;11.63;7.53;;;10.10;90.20;;;;;;4964223;28;20031;-82
2023/05/04 04:57:10;;;;;;;12.50;8.25;;;10.20;90.30;;;;;;4961047;28;20611;-82
2023/05/04 04:59:36;;;;;;;12.38;8.10;;;10.20;89.30;;;;;;4967974;28;20031;-82
2023/05/04 05:02:03;;;;;;;12.38;7.32;;;10.20;90.40;;;;;;4972308;28;20153;-79
2023/05/04 05:04:31;;;;;;;13.85;6.07;;;10.30;89.50;;;;;;4972430;28;20023;-82
2023/05/04 05:06:57;;;;;;;11.90;7.22;;;10.30;90.30;;;;;;4955454;28;20026;-81
2023/05/04 05:09:24;;;;;;;9.05;4.82;;;10.40;90.90;;;;;;4966321;28;20079;-81
2023/05/04 05:11:49;;;;;;;13.55;8.38;;;10.40;91.30;;;;;;4946206;28;20023;-80
2023/05/04 05:14:15;;;;;;;11.95;7.07;;;10.50;90.10;;;;;;4954926;29;20038;-81
2023/05/04 05:16:40;;;;;;;10.13;6.75;;;10.60;90.00;;;;;;4970305;28;20106;-80
2023/05/04 05:19:06;;;;;;;11.57;7.40;;;10.70;90.10;;;;;;4952938;28;20474;-81
2023/05/04 05:21:32;;;;;;;12.73;7.88;;;10.70;89.90;;;;;;4964663;28;20074;-81
2023/05/04 05:24:00;;;;;;;19.33;9.40;;;10.70;90.00;;;;;;4971057;28;20400;-80
2023/05/04 05:26:26;;;;;;;14.95;9.05;;;10.70;89.60;;;;;;4971560;28;20109;-81
2023/05/04 05:28:52;;;;;;;11.77;8.05;;;10.80;87.90;;;;;;4953813;28;20133;-82
2023/05/04 05:31:17;;;;;;;11.20;8.05;;;10.80;87.00;;;;;;4970856;28;20027;-81
2023/05/04 05:33:43;;;;;;;12.77;9.05;;;10.80;87.70;;;;;;4974497;28;20042;-82
2023/05/04 05:36:08;;;;;;;12.52;5.28;;;10.90;86.80;;;;;;4969088;28;20073;-81
2023/05/04 05:38:34;;;;;;;12.60;7.80;;;10.90;89.10;;;;;;4964017;28;20015;-82
2023/05/04 05:41:03;;;;;;;13.95;8.82;;;11.00;87.80;;;;;;4960572;28;20548;-81
2023/05/04 05:43:28;;;;;;;12.75;8.45;;;11.10;86.50;;;;;;4967546;28;20058;-81
2023/05/04 05:45:55;;;;;;;14.80;8.32;;;11.10;86.00;;;;;;4972040;28;20018;-82
2023/05/04 05:48:22;;;;;;;15.20;9.50;;;11.10;86.40;;;;;;4970052;28;20046;-82
2023/05/04 05:50:47;;;;;;;12.75;8.50;;;11.10;85.30;;;;;;4956305;28;20027;-81
2023/05/04 05:53:13;;;;;;;12.55;8.43;;;11.20;85.80;;;;;;4971226;28;20329;-82
2023/05/04 05:55:38;;;;;;;14.40;7.72;;;11.30;86.90;;;;;;4970990;28;20045;-80
2023/05/04 05:58:05;;;;;;;11.85;7.03;;;11.30;85.30;;;;;;4960951;28;20030;-80
2023/05/04 06:00:31;;;;;;;12.23;7.53;;;11.40;87.30;;;;;;4970613;28;20034;-80
2023/05/04 06:02:56;;;;;;;11.05;7.55;;;11.40;84.70;;;;;;4952323;28;20027;-79
2023/05/04 06:05:23;;;;;;;14.70;9.02;;;11.50;85.40;;;;;;4971164;28;20031;-82
2023/05/04 06:07:48;;;;;;;14.73;7.45;;;11.50;85.50;;;;;;4960942;28;20418;-80
2023/05/04 06:10:15;;;;;;;13.32;7.88;;;11.50;84.30;;;;;;4958550;28;20070;-80
2023/05/04 06:12:43;;;;;;;12.27;6.72;;;11.60;84.50;;;;;;4970990;28;20110;-75
2023/05/04 06:15:10;;;;;;;14.90;6.38;;;11.80;85.70;;;;;;4956364;28;20046;-76
2023/05/04 06:17:36;;;;;;;9.40;5.50;;;12.10;85.30;;;;;;4943783;28;20544;-76
2023/05/04 06:20:01;;;;;;;9.07;4.97;;;12.30;84.60;;;;;;4965980;28;20142;-76
2023/05/04 06:22:27;;;;;;;9.77;6.45;;;12.40;84.20;;;;;;4963912;28;20595;-76
2023/05/04 06:24:53;;;;;;;8.40;5.00;;;12.60;83.80;;;;;;4968265;28;20069;-76
2023/05/04 06:27:18;;;;;;;8.38;5.03;;;12.80;83.30;;;;;;4967690;28;20035;-77
2023/05/04 06:29:45;;;;;;;7.22;4.57;;;12.90;82.90;;;;;;4963649;28;20027;-76
2023/05/04 06:32:11;;;;;;;9.60;4.78;;;12.90;82.40;;;;;;4948524;28;20043;-80
2023/05/04 06:34:36;;;;;;;11.52;6.05;;;13.00;82.50;;;;;;4948544;28;20058;-77
2023/05/04 06:37:02;;;;;;;10.38;6.10;;;13.10;82.20;;;;;;4956838;28;20062;-78
2023/05/04 06:39:27;;;;;;;7.22;4.05;;;13.20;81.50;;;;;;4966119;28;20032;-77
2023/05/04 06:41:54;;;;;;;9.57;4.30;;;13.20;81.20;;;;;;4964071;28;20389;-78
2023/05/04 06:44:20;;;;;;;7.30;4.18;;;13.30;81.60;;;;;;4968766;28;20019;-78
2023/05/04 06:46:46;;;;;;;7.20;4.80;;;13.30;81.20;;;;;;4967014;28;20541;-78
2023/05/04 06:49:16;;;;;;;10.73;4.72;;;13.40;80.80;;;;;;4957417;28;20086;-78
2023/05/04 06:51:42;;;;;;;11.35;5.50;;;13.40;80.90;;;;;;4968687;28;20030;-79
2023/05/04 06:54:09;;;;;;;12.88;7.88;;;13.50;80.20;;;;;;4975838;28;20027;-82
2023/05/04 06:56:34;;;;;;;14.80;6.65;;;13.60;78.30;;;;;;4959146;28;20043;-76
2023/05/04 06:59:00;;;;;;;14.40;8.10;;;13.70;77.60;;;;;;4951169;28;20121;-78
2023/05/04 07:01:27;;;;;;;10.60;6.72;;;13.80;77.30;;;;;;4971957;28;20421;-77
2023/05/04 07:03:52;;;;;;;10.63;6.30;;;13.90;76.70;;;;;;4960273;28;20035;-77
2023/05/04 07:06:18;;;;;;;11.18;6.75;;;13.90;76.50;;;;;;4963271;28;20034;-78
2023/05/04 07:08:44;;;;;;;11.65;6.18;;;13.90;76.10;;;;;;4951038;28;20427;-78
2023/05/04 07:11:11;;;;;;;11.18;7.30;;;14.00;77.10;;;;;;4967391;28;20077;-79
2023/05/04 07:13:37;;;;;;;13.35;6.93;;;14.10;76.80;;;;;;4966932;28;20443;-77
2023/05/04 07:16:07;;;;;;;10.85;6.97;;;14.10;75.50;;;;;;4970275;28;20125;-76
2023/05/04 07:18:32;;;;;;;10.48;6.00;;;14.20;75.50;;;;;;4970382;28;20066;-78
2023/05/04 07:20:58;;;;;;;9.40;6.22;;;14.20;75.20;;;;;;4969372;28;20109;-79
2023/05/04 07:23:23;;;;;;;13.85;8.35;;;14.20;76.20;;;;;;4967465;28;20031;-77
2023/05/04 07:25:49;;;;;;;13.95;7.90;;;14.30;76.20;;;;;;4967027;28;20030;-77
2023/05/04 07:28:15;;;;;;;9.57;5.78;;;14.40;75.80;;;;;;4968898;28;20023;-77
2023/05/04 07:30:41;;;;;;;13.35;7.82;;;14.50;75.00;;;;;;4969011;28;20091;-77
2023/05/04 07:33:06;;;;;;;12.88;8.05;;;14.50;74.60;;;;;;4969904;28;20039;-82
2023/05/04 07:35:32;;;;;;;13.23;7.50;;;14.60;74.80;;;;;;4968148;28;20034;-76
2023/05/04 07:37:58;;;;;;;11.07;6.60;;;14.70;74.50;;;;;;4951084;28;20019;-78
2023/05/04 07:40:24;;;;;;;9.15;6.72;;;14.90;74.90;;;;;;4969210;28;20434;-78
2023/05/04 07:42:49;;;;;;;10.90;7.13;;;14.90;73.50;;;;;;4949666;28;20030;-80
2023/05/04 07:45:16;;;;;;;12.40;7.38;;;15.00;73.50;;;;;;4970197;28;20047;-77
2023/05/04 07:47:42;;;;;;;8.70;5.47;;;15.10;73.20;;;;;;4971918;28;20436;-77
2023/05/04 07:50:08;;;;;;;11.25;5.95;;;15.20;74.50;;;;;;4977228;28;20107;-78
2023/05/04 07:52:33;;;;;;;12.02;6.18;;;15.30;73.10;;;;;;4978643;28;20023;-78
2023/05/04 07:54:59;;;;;;;13.13;7.10;;;15.40;74.20;;;;;;4974851;28;20054;-79
2023/05/04 07:57:25;;;;;;;11.05;7.10;;;15.50;72.60;;;;;;4974689;28;20027;-78
2023/05/04 07:59:54;;;;;;;8.73;5.72;;;15.70;73.40;;;;;;4972861;28;20114;-77
2023/05/04 08:02:20;;;;;;;9.80;5.17;;;15.80;73.20;;;;;;4979227;28;20003;-78
2023/05/04 08:04:46;;;;;;;10.20;5.22;;;16.00;73.30;;;;;;4978436;28;20178;-78
2023/05/04 08:07:14;;;;;;;9.20;5.70;;;16.10;73.00;;;;;;4962080;28;20631;-77
2023/05/04 08:09:39;;;;;;;8.00;5.53;;;16.30;71.80;;;;;;4976912;28;20019;-77
2023/05/04 08:12:06;;;;;;;16.35;7.47;;;16.40;70.40;;;;;;4979302;28;20034;-79
2023/05/04 08:14:32;;;;;;;13.48;6.50;;;16.50;70.60;;;;;;4976834;28;20082;-76
2023/05/04 08:16:59;;;;;;;10.95;6.43;;;16.50;71.00;;;;;;4979236;28;20734;-78
2023/05/04 08:19:25;;;;;;;11.05;6.90;;;16.70;70.50;;;;;;4976059;28;20034;-78
2023/05/04 08:21:51;;;;;;;11.32;7.38;;;16.80;69.20;;;;;;4973889;28;20015;-78
2023/05/04 08:24:18;;;;;;;11.82;6.05;;;17.00;68.30;;;;;;4976064;28;20018;-77
2023/05/04 08:26:44;;;;;;;11.95;7.15;;;17.20;70.30;;;;;;4974849;28;20448;-77
2023/05/04 08:29:09;;;;;;;8.48;4.80;;;17.30;67.70;;;;;;4971512;28;20027;-78
2023/05/04 08:31:35;;;;;;;12.18;7.20;;;17.40;69.10;;;;;;4976337;28;20093;-79
2023/05/04 08:34:02;;;;;;;15.68;6.47;;;17.40;68.60;;;;;;4944159;29;20043;-77
2023/05/04 08:36:28;;;;;;;8.18;4.85;;;17.50;68.50;;;;;;4953938;29;20129;-78
2023/05/04 08:38:54;;;;;;;9.88;5.70;;;17.50;69.00;;;;;;4954229;29;20536;-78
2023/05/04 08:41:19;;;;;;;8.70;5.25;;;17.60;68.40;;;;;;4937273;29;20027;-81
2023/05/04 08:43:48;;;;;;;9.88;5.93;;;17.60;67.00;;;;;;4951177;29;20097;-79
2023/05/04 08:46:15;;;;;;;11.45;6.35;;;17.70;68.00;;;;;;4949997;29;20937;-78
2023/05/04 08:48:43;;;;;;;8.40;4.35;;;17.70;67.20;;;;;;4936167;29;20027;-78
2023/05/04 08:51:10;;;;;;;5.45;3.22;;;17.90;69.90;;;;;;4951765;29;20019;-79
2023/05/04 08:53:39;;;;;;;9.40;5.68;;;18.10;70.90;;;;;;4952350;29;20030;-77
2023/05/04 08:56:08;;;;;;;9.93;5.80;;;18.20;67.30;;;;;;4934514;29;20046;-79
2023/05/04 08:58:41;;;;;;;8.55;4.53;;;18.30;63.40;;;;;;4952606;29;20070;-79
2023/05/04 09:01:09;;;;;;;9.85;6.78;;;18.30;64.90;;;;;;4951488;29;20386;-79
2023/05/04 09:03:34;;;;;;;9.93;5.60;;;18.30;66.00;;;;;;4951565;29;20386;-78
2023/05/04 09:06:01;;;;;;;6.78;3.88;;;18.40;64.10;;;;;;4953389;29;20019;-79
2023/05/04 09:08:27;;;;;;;12.13;4.70;;;18.40;67.00;;;;;;4953499;29;20019;-78
2023/05/04 09:10:52;;;;;;;9.57;6.28;;;18.50;67.50;;;;;;4951548;29;20393;-78
2023/05/04 09:13:18;;;;;;;11.95;6.68;;;18.50;63.20;;;;;;4953039;29;20023;-81
2023/05/04 09:15:56;;;;;;;10.00;6.28;;;18.60;67.30;;;;;;4933292;29;20042;-77
2023/05/04 09:18:22;;;;;;;12.68;7.10;;;18.80;65.00;;;;;;4948324;28;20024;-79
2023/05/04 09:20:48;;;;;;;10.57;5.10;;;19.00;64.10;;;;;;4952554;29;20544;-79
2023/05/04 09:23:15;;;;;;;9.13;4.07;;;19.00;66.20;;;;;;4953434;29;20027;-79
2023/05/04 09:25:51;;;;;;;14.30;8.00;;;19.10;66.50;;;;;;4950282;29;20015;-79
2023/05/04 09:28:19;;;;;;;8.73;5.55;;;19.30;63.20;;;;;;4928191;29;20019;-79
2023/05/04 09:30:46;;;;;;;11.35;5.82;;;19.40;63.00;;;;;;4949132;29;20047;-77
2023/05/04 09:33:12;;;;;;;10.55;6.35;;;19.60;65.90;;;;;;4955692;28;20047;-78
2023/05/04 09:35:40;;;;;;;9.00;5.25;;;19.50;63.90;;;;;;4968308;28;20115;-78
2023/05/04 09:38:06;;;;;;;11.63;6.05;;;19.50;63.00;;;;;;4970061;28;20101;-79
2023/05/04 09:40:40;;;;;;;9.52;5.15;;;19.60;63.60;;;;;;4972620;28;20062;-79
2023/05/04 09:43:07;;;;;;;10.20;5.60;;;19.50;66.40;;;;;;4971104;28;20037;-78
2023/05/04 09:45:46;;;;;;;11.77;6.65;;;19.60;65.80;;;;;;4972352;28;20106;-79
2023/05/04 09:48:16;;;;;;;14.10;6.18;;;19.50;64.20;;;;;;4952597;28;20304;-78
2023/05/04 09:50:53;;;;;;;11.50;4.95;;;19.50;66.40;;;;;;4970431;28;20011;-79
2023/05/04 09:53:22;;;;;;;8.65;5.60;;;19.60;65.70;;;;;;4969449;28;20051;-79
2023/05/04 09:55:58;;;;;;;11.65;6.47;;;19.70;65.20;;;;;;4968043;28;20057;-79
2023/05/04 09:58:24;;;;;;;9.20;5.60;;;19.90;63.80;;;;;;4968118;28;20468;-80
2023/05/04 10:00:52;;;;;;;9.10;4.30;;;20.20;66.30;;;;;;4970700;28;20030;-78
2023/05/04 10:03:19;;;;;;;8.65;4.53;;;20.50;66.10;;;;;;4965921;28;20078;-80
2023/05/04 10:05:45;;;;;;;4.53;2.50;;;20.70;67.20;;;;;;4969496;28;20011;-80
2023/05/04 10:08:12;;;;;;;6.43;3.75;;;21.00;69.40;;;;;;4969713;28;20477;-79
2023/05/04 10:10:38;;;;;;;10.38;6.05;;;21.20;68.50;;;;;;4968093;28;20539;-79
2023/05/04 10:13:04;;;;;;;6.00;3.03;;;21.30;63.90;;;;;;4952660;28;20481;-81
2023/05/04 10:15:30;;;;;;;8.10;5.18;;;21.40;64.60;;;;;;4969949;28;20041;-78
2023/05/04 10:18:20;;;;;;;7.85;4.10;;;21.50;65.70;;;;;;4970574;28;20037;-79
2023/05/04 10:20:49;;;;;;;9.88;6.25;;;21.70;64.50;;;;;;4968513;28;20030;-79
2023/05/04 10:23:49;;;;;;;7.15;3.53;;;21.80;63.10;;;;;;4967656;28;20097;-79
2023/05/04 10:26:24;;;;;;;;;;;22.10;65.90;;;;;;4970536;28;20141;-80
2023/05/04 10:29:13;;;;;;;10.73;5.82;;;22.30;64.90;;;;;;4969764;28;19917;-81
2023/05/04 10:31:40;;;;;;;6.87;4.17;;;22.50;60.70;;;;;;4948551;28;20037;-80
2023/05/04 10:34:07;;;;;;;7.22;3.83;;;22.60;62.50;;;;;;4966556;28;20333;-80
2023/05/04 10:36:41;;;;;;;9.77;6.05;;;22.70;60.50;;;;;;4968174;28;20705;-80
2023/05/04 10:39:21;;;;;;;6.80;4.00;;;22.70;57.00;;;;;;4966997;28;20027;-80
2023/05/04 10:41:59;;;;;;;8.77;4.88;;;22.80;63.90;;;;;;4967395;28;20027;-78
2023/05/04 10:44:26;;;;;;;6.38;3.30;;;22.90;59.00;;;;;;4966417;28;20019;-80
2023/05/04 10:47:04;;;;;;;8.25;5.00;;;23.00;60.60;;;;;;4970966;28;20034;-79
2023/05/04 10:49:31;;;;;;;10.93;5.82;;;23.00;56.40;;;;;;4968882;28;20015;-79
2023/05/04 10:52:15;;;;;;;8.85;4.82;;;23.00;55.90;;;;;;4969379;28;20033;-80
2023/05/04 10:54:42;;;;;;;9.50;4.00;;;23.00;59.50;;;;;;4968248;28;20019;-80
2023/05/04 10:57:13;;;;;;;7.50;4.88;;;23.20;62.40;;;;;;4968724;28;20049;-78
2023/05/04 10:59:40;;;;;;;5.45;2.45;;;23.30;55.60;;;;;;4964897;28;20057;-79
2023/05/04 11:02:06;;;;;;;10.43;4.47;;;23.40;63.90;;;;;;4964620;28;20050;-81
2023/05/04 11:04:32;;;;;;;9.73;6.18;;;23.70;62.00;;;;;;4950290;28;20027;-80
2023/05/04 11:07:00;;;;;;;8.50;4.18;;;23.90;55.40;;;;;;4969223;28;20142;-78
2023/05/04 11:09:27;;;;;;;10.68;6.25;;;23.80;57.90;;;;;;4969006;28;20030;-80
2023/05/04 11:11:54;;;;;;;11.32;5.53;;;23.90;57.60;;;;;;4935259;28;20019;-79
2023/05/04 11:14:29;;;;;;;11.70;5.05;;;24.00;53.30;;;;;;4968193;28;20022;-79
2023/05/04 11:17:13;;;;;;;13.40;7.60;;;24.20;56.00;;;;;;4968079;28;20078;-80
2023/05/04 11:19:49;;;;;;;8.48;5.38;;;24.10;52.40;;;;;;4971959;28;20114;-81
2023/05/04 11:22:16;;;;;;;10.23;5.95;;;23.90;58.80;;;;;;4951022;28;20393;-80
2023/05/04 11:24:43;;;;;;;11.90;5.75;;;23.70;53.00;;;;;;4967064;28;20054;-79
2023/05/04 11:27:28;;;;;;;9.75;5.25;;;23.90;55.10;;;;;;4970056;28;20030;-81
2023/05/04 11:30:05;;;;;;;9.32;6.15;;;24.10;55.50;;;;;;4952555;28;20154;-78
2023/05/04 11:32:42;;;;;;;11.45;6.38;;;24.20;52.90;;;;;;4971027;28;20074;-78
2023/05/04 11:35:21;;;;;;;9.85;5.25;;;24.30;52.10;;;;;;4971957;28;20035;-80
2023/05/04 11:37:48;;;;;;;8.93;5.15;;;24.50;54.40;;;;;;4970413;28;20018;-81
2023/05/04 11:40:24;;;;;;;5.72;2.85;;;24.50;52.80;;;;;;4969443;28;20022;-78
2023/05/04 11:42:51;;;;;;;10.80;6.80;;;24.70;60.80;;;;;;4969647;28;20082;-79
2023/05/04 11:45:22;;;;;;;11.07;5.57;;;24.60;51.90;;;;;;4971070;28;20085;-80
2023/05/04 11:47:51;;;;;;;6.60;3.40;;;24.70;56.60;;;;;;4970085;28;20026;-78
2023/05/04 11:50:19;;;;;;;9.27;4.78;;;24.80;59.10;;;;;;4953762;28;20485;-81
2023/05/04 11:52:46;;;;;;;11.60;6.07;;;24.70;56.90;;;;;;4966771;28;20019;-79
2023/05/04 11:55:26;;;;;;;7.63;4.15;;;24.80;54.80;;;;;;4967353;28;20034;-78
2023/05/04 11:57:59;;;;;;;9.00;3.05;;;24.90;55.20;;;;;;4967656;28;20061;-79
2023/05/04 12:00:48;;;;;;;6.78;3.22;;;25.00;60.60;;;;;;4967753;28;20050;-82
2023/05/04 12:03:15;;;;;;;10.85;6.53;;;25.10;59.60;;;;;;4970653;28;20321;-80
2023/05/04 12:05:54;;;;;;;11.80;6.05;;;25.00;52.90;;;;;;4967537;28;20019;-80
2023/05/04 12:08:33;;;;;;;11.45;6.35;;;25.00;57.10;;;;;;4966032;28;20019;-81
2023/05/04 12:11:23;;;;;;;9.13;4.32;;;25.10;52.20;;;;;;4966275;28;20023;-81
2023/05/04 12:14:13;;;;;;;6.72;4.20;;;25.10;57.30;;;;;;4973028;28;20081;-78
2023/05/04 12:16:41;;;;;;;8.65;4.55;;;25.20;54.30;;;;;;4963038;28;20043;-80
2023/05/04 12:19:11;;;;;;;7.10;4.25;;;25.40;54.20;;;;;;4962024;28;20047;-80
2023/05/04 12:21:47;;;;;;;;;;;25.60;56.00;;;;;;4970773;28;20023;-79
2023/05/04 12:24:13;;;;;;;11.05;5.15;;;25.60;52.70;;;;;;4964610;28;19910;-82
2023/05/04 12:26:38;;;;;;;5.75;3.33;;;25.40;55.70;;;;;;4951482;28;20033;-79
2023/05/04 12:29:04;;;;;;;6.30;3.00;;;25.50;56.40;;;;;;4966315;28;20027;-79
2023/05/04 12:31:30;;;;;;;12.20;8.35;;;25.70;63.10;;;;;;4964092;28;20050;-79
2023/05/04 12:33:56;;;;;;;6.65;3.42;;;26.00;51.50;;;;;;4960601;28;20138;-80
2023/05/04 12:36:22;;;;;;;10.43;7.15;;;26.30;57.80;;;;;;4965254;28;20481;-81
2023/05/04 12:38:47;;;;;;;7.70;3.75;;;26.10;52.20;;;;;;4950305;28;20027;-80
2023/05/04 12:41:13;;;;;;;9.10;4.22;;;26.00;57.00;;;;;;4962113;28;20034;-80
2023/05/04 12:43:39;;;;;;;7.57;4.90;;;26.00;54.70;;;;;;4969285;28;20023;-80